Sen. John J. Marchi — WDB8296 — position and weather

sailwx.info

Track history (hours):
 
Tides and Currents Weather Stations Pressure Air Temp Water Temp Dewpoint Dewpoint Depression Visibility Wind Speed Wind Dir Waves Ship Positions

Sen. John J. Marchi

Owner: CITY OF NEW YORK, Brooklyn, NY. More information available from US FCC via Universal Licensing System and Coast Guard Vessel Documentation Center.

Last reported at 2018-Jun-19 06:59 UTC. Time now 2018-Jun-19 06:58 UTC.
Position N 40°39' W 074°04'.

Length 95 m; draft 4 m.

Type: Passenger vessel. MMSI: 366952870.

Date/timePositionNaut miles runAvg speedWind from/ knotsBaromVisibWave heightAir tempDewpointWater temp
2018-Jun-19 06:59N 40°39' W 074°04'0 0.0
2018-Jun-19 06:29N 40°39' W 074°04'0 0.0
2018-Jun-19 05:59N 40°39' W 074°04'0 0.0
2018-Jun-19 05:29N 40°39' W 074°04'0 0.0
2018-Jun-19 04:59N 40°39' W 074°04'0 0.0
2018-Jun-19 04:30N 40°39' W 074°04'0 0.0
2018-Jun-19 04:00N 40°39' W 074°04'4 8.6
2018-Jun-19 03:31N 40°42' W 074°01'4 8.6
2018-Jun-19 03:00N 40°39' W 074°04'0 0.0
2018-Jun-19 02:30N 40°39' W 074°04'4 8.7
2018-Jun-19 02:00N 40°42' W 074°01'4 8.6
2018-Jun-19 01:30N 40°39' W 074°04'0 0.1
2018-Jun-19 01:00N 40°39' W 074°04'0 0.0
2018-Jun-19 00:30N 40°39' W 074°04'4 8.7
2018-Jun-19 00:00N 40°42' W 074°01'4 8.6
2018-Jun-18 23:31N 40°39' W 074°04'1 2.9
2018-Jun-18 23:00N 40°40' W 074°03'1 2.7
2018-Jun-18 22:30N 40°41' W 074°02'2 3.2
2018-Jun-18 22:00N 40°40' W 074°03'2 3.9
2018-Jun-18 21:30N 40°41' W 074°02'3 5.4
2018-Jun-18 21:00N 40°39' W 074°04'3 6.7
2018-Jun-18 20:31N 40°42' W 074°01'4 7.6
2018-Jun-18 20:01N 40°39' W 074°04'0 0.1
2018-Jun-18 17:33N 40°39' W 074°04'0 8.6
2018-Jun-18 17:30N 40°39' W 074°04'4 7.5
2018-Jun-18 16:59N 40°42' W 074°01'4 8.7
2018-Jun-18 16:29N 40°39' W 074°04'4 9.0
2018-Jun-18 16:01N 40°42' W 074°01'4 7.0
2018-Jun-18 15:24N 40°39' W 074°04'411.0
2018-Jun-18 15:00N 40°42' W 074°01'4 8.5
2018-Jun-18 14:30N 40°39' W 074°04'0 0.0
2018-Jun-18 13:37N 40°39' W 074°04'112.3
2018-Jun-18 13:30N 40°40' W 074°03'2 3.1
2018-Jun-18 13:00N 40°41' W 074°02'1 2.9
2018-Jun-18 12:31N 40°40' W 074°03'1 2.5
2018-Jun-18 12:01N 40°41' W 074°02'3 5.4
2018-Jun-18 11:31N 40°39' W 074°04'4 7.8
2018-Jun-18 11:01N 40°42' W 074°01'4 7.8
2018-Jun-18 10:31N 40°39' W 074°04'2 4.0
2018-Jun-18 10:01N 40°37' W 074°03'2 3.9
2018-Jun-18 09:30N 40°39' W 074°04'0 0.0
2018-Jun-18 09:00N 40°39' W 074°04'0 0.0
2018-Jun-18 08:31N 40°39' W 074°04'0 0.0
2018-Jun-18 08:00N 40°39' W 074°04'0 0.1
2018-Jun-18 07:30N 40°39' W 074°04'0 0.0
2018-Jun-18 07:00N 40°39' W 074°04'0 0.0
2018-Jun-18 06:30N 40°39' W 074°04'0 0.0
2018-Jun-18 06:00N 40°39' W 074°04'0 0.0
2018-Jun-18 05:30N 40°39' W 074°04'0 0.0
2018-Jun-18 05:00N 40°39' W 074°04'0 0.0
2018-Jun-18 04:30N 40°39' W 074°04'0 0.0
2018-Jun-18 04:01N 40°39' W 074°04'4 8.6
2018-Jun-18 03:30N 40°42' W 074°01'4 8.5
2018-Jun-18 03:00N 40°39' W 074°04'4 8.5
2018-Jun-18 02:30N 40°42' W 074°01'4 8.5
2018-Jun-18 02:00N 40°39' W 074°04'4 8.5
2018-Jun-18 01:29N 40°42' W 074°01'4 8.9
2018-Jun-18 01:00N 40°39' W 074°04'4 8.7
2018-Jun-18 00:31N 40°42' W 074°01'4 7.7
2018-Jun-17 23:57N 40°39' W 074°04'0 0.1
2018-Jun-17 23:25N 40°39' W 074°04'410.4
2018-Jun-17 23:00N 40°42' W 074°01'4 8.7
2018-Jun-17 22:30N 40°39' W 074°04'0 0.0
2018-Jun-17 22:00N 40°39' W 074°04'4 8.5
2018-Jun-17 21:30N 40°42' W 074°01'4 8.8
2018-Jun-17 21:00N 40°39' W 074°04'0 0.1
2018-Jun-17 20:31N 40°39' W 074°04'4 8.5
2018-Jun-17 20:00N 40°42' W 074°01'4 8.6
2018-Jun-17 19:30N 40°39' W 074°04'0 0.1
2018-Jun-17 19:00N 40°39' W 074°04'4 8.9
2018-Jun-17 18:30N 40°42' W 074°01'4 8.6
2018-Jun-17 18:00N 40°39' W 074°04'0 0.0
2018-Jun-17 17:30N 40°39' W 074°04'4 8.6
2018-Jun-17 17:00N 40°42' W 074°01'4 8.6
2018-Jun-17 16:31N 40°39' W 074°04'0 0.0
2018-Jun-17 15:59N 40°39' W 074°04'4 8.9
2018-Jun-17 15:30N 40°42' W 074°01'4 8.6
2018-Jun-17 15:00N 40°39' W 074°04'4 8.7
2018-Jun-17 14:30N 40°42' W 074°01'4 8.6
2018-Jun-17 14:00N 40°39' W 074°04'4 8.6
2018-Jun-17 13:31N 40°42' W 074°01'4 8.5
2018-Jun-17 13:00N 40°39' W 074°04'4 8.5
2018-Jun-17 12:30N 40°42' W 074°01'4 8.6
2018-Jun-17 12:00N 40°39' W 074°04'2 3.3
2018-Jun-17 11:30N 40°37' W 074°03'2 3.3
2018-Jun-17 11:00N 40°39' W 074°04'0 0.0
2018-Jun-17 10:30N 40°39' W 074°04'0 0.0
2018-Jun-17 10:00N 40°39' W 074°04'0 0.0
2018-Jun-17 09:30N 40°39' W 074°04'0 0.0
2018-Jun-17 09:00N 40°39' W 074°04'0 0.0
2018-Jun-17 08:30N 40°39' W 074°04'0 0.0
2018-Jun-17 08:00N 40°39' W 074°04'0 0.0
2018-Jun-17 07:30N 40°39' W 074°04'0 0.0
2018-Jun-17 07:00N 40°39' W 074°04'0 0.0
2018-Jun-17 06:27N 40°39' W 074°04'0 0.0
2018-Jun-17 06:00N 40°39' W 074°04'2 4.5
2018-Jun-17 05:30N 40°37' W 074°03'2 4.5
2018-Jun-17 05:00N 40°39' W 074°04'0 0.0
2018-Jun-17 04:30N 40°39' W 074°04'0 0.0
2018-Jun-17 04:00N 40°39' W 074°04'4 8.7
2018-Jun-17 03:30N 40°42' W 074°01'4 7.6
2018-Jun-17 02:57N 40°39' W 074°04'4 9.9
2018-Jun-17 02:30N 40°42' W 074°01'4 8.6
2018-Jun-17 02:01N 40°39' W 074°04'4 8.4
2018-Jun-17 01:30N 40°42' W 074°01'4 8.9
2018-Jun-17 01:00N 40°39' W 074°04'4 8.7
2018-Jun-17 00:31N 40°42' W 074°01'4 8.6
2018-Jun-17 00:00N 40°39' W 074°04'0 0.0
2018-Jun-16 23:28N 40°39' W 074°04'4 8.0
2018-Jun-16 22:56N 40°42' W 074°01'410.3
2018-Jun-16 22:30N 40°39' W 074°04'0 0.7
2018-Jun-16 22:01N 40°39' W 074°04'4 8.0
2018-Jun-16 21:30N 40°42' W 074°01'4 8.6
2018-Jun-16 21:01N 40°39' W 074°04'0 0.1
2018-Jun-16 20:31N 40°39' W 074°04'4 8.6
2018-Jun-16 20:00N 40°42' W 074°01'4 8.6
2018-Jun-16 19:30N 40°39' W 074°04'0 0.1
2018-Jun-16 19:01N 40°39' W 074°04'4 8.6
2018-Jun-16 18:30N 40°42' W 074°01'4 8.6
2018-Jun-16 18:00N 40°39' W 074°04'0 0.0
2018-Jun-16 17:30N 40°39' W 074°04'4 8.6
2018-Jun-16 17:00N 40°42' W 074°01'4 8.7
2018-Jun-16 16:31N 40°39' W 074°04'0 0.0
2018-Jun-16 16:00N 40°39' W 074°04'4 8.7
2018-Jun-16 15:30N 40°42' W 074°01'4 8.6
2018-Jun-16 15:00N 40°39' W 074°04'4 8.6
2018-Jun-16 14:30N 40°42' W 074°01'4 8.6
2018-Jun-16 14:01N 40°39' W 074°04'4 8.6
2018-Jun-16 13:31N 40°42' W 074°01'4 8.6
2018-Jun-16 13:01N 40°39' W 074°04'4 8.6
2018-Jun-16 12:31N 40°42' W 074°01'4 8.6
2018-Jun-16 12:00N 40°39' W 074°04'0 0.0
2018-Jun-16 11:30N 40°39' W 074°04'0 0.0
2018-Jun-16 11:00N 40°39' W 074°04'0 0.0
2018-Jun-16 10:30N 40°39' W 074°04'0 0.0
2018-Jun-16 10:00N 40°39' W 074°04'0 0.0
2018-Jun-16 09:30N 40°39' W 074°04'0 0.0
2018-Jun-16 08:59N 40°39' W 074°04'0 0.0
2018-Jun-16 08:29N 40°39' W 074°04'0 0.0
2018-Jun-16 07:59N 40°39' W 074°04'0 0.0
2018-Jun-16 07:29N 40°39' W 074°04'0 0.0
2018-Jun-16 06:59N 40°39' W 074°04'0 0.0
2018-Jun-16 06:29N 40°39' W 074°04'0 0.0
2018-Jun-16 05:59N 40°39' W 074°04'0 0.0
2018-Jun-16 05:29N 40°39' W 074°04'0 0.0
2018-Jun-16 04:59N 40°39' W 074°04'0 0.0
2018-Jun-16 04:29N 40°39' W 074°04'0 0.0
2018-Jun-16 04:00N 40°39' W 074°04'4 8.8
2018-Jun-16 03:30N 40°42' W 074°01'4 8.5
2018-Jun-16 03:00N 40°39' W 074°04'0 0.0
2018-Jun-16 02:26N 40°39' W 074°04'410.1
2018-Jun-16 02:00N 40°42' W 074°01'4 8.6
2018-Jun-16 01:30N 40°39' W 074°04'0 0.2
2018-Jun-16 01:01N 40°39' W 074°04'4 8.4
2018-Jun-16 00:30N 40°42' W 074°01'4 8.6
2018-Jun-16 00:00N 40°39' W 074°04'0 0.0
2018-Jun-15 23:30N 40°39' W 074°04'4 8.5
2018-Jun-15 23:00N 40°42' W 074°01'4 8.7
2018-Jun-15 22:30N 40°39' W 074°04'4 8.5
2018-Jun-15 22:00N 40°42' W 074°01'2 4.9
2018-Jun-15 21:30N 40°40' W 074°03'1 2.1
2018-Jun-15 21:00N 40°39' W 074°03'3 5.3
2018-Jun-15 20:30N 40°41' W 074°02'3 6.7
2018-Jun-15 20:00N 40°39' W 074°04'0 0.0
2018-Jun-15 19:30N 40°39' W 074°04'0 0.0
2018-Jun-15 19:00N 40°39' W 074°04'4 8.6
2018-Jun-15 18:30N 40°42' W 074°01'4 8.7
2018-Jun-15 18:00N 40°39' W 074°04'0 0.0
2018-Jun-15 17:31N 40°39' W 074°04'0 0.2
2018-Jun-15 17:00N 40°39' W 074°04'0 0.0
2018-Jun-15 16:30N 40°39' W 074°04'0 0.0
2018-Jun-15 16:01N 40°39' W 074°04'0 0.0
2018-Jun-15 15:30N 40°39' W 074°04'0 0.0
2018-Jun-15 15:00N 40°39' W 074°04'0 0.0
2018-Jun-15 14:30N 40°39' W 074°04'0 0.1
2018-Jun-15 14:00N 40°39' W 074°04'1 2.9
2018-Jun-15 13:30N 40°40' W 074°03'2 3.4
2018-Jun-15 13:01N 40°41' W 074°02'1 2.7
2018-Jun-15 12:30N 40°40' W 074°03'1 2.9
2018-Jun-15 12:00N 40°41' W 074°02'3 5.2
2018-Jun-15 11:31N 40°39' W 074°04'3 6.1
2018-Jun-15 11:01N 40°42' W 074°01'4 7.2
2018-Jun-15 10:30N 40°39' W 074°04'0 0.0
2018-Jun-15 10:00N 40°39' W 074°04'0 0.0
2018-Jun-15 09:30N 40°39' W 074°04'0 0.0
2018-Jun-15 09:00N 40°39' W 074°04'0 0.0
2018-Jun-15 08:29N 40°39' W 074°04'0 0.0
2018-Jun-15 07:59N 40°39' W 074°04'0 0.0
2018-Jun-15 07:29N 40°39' W 074°04'0 0.0
2018-Jun-15 06:59N 40°39' W 074°04'0 0.0
2018-Jun-15 06:29N 40°39' W 074°04'0 0.0
2018-Jun-15 05:59N 40°39' W 074°04'0 0.0
2018-Jun-15 05:29N 40°39' W 074°04'0 0.0
2018-Jun-15 04:56N 40°39' W 074°04'0 0.0
2018-Jun-15 04:29N 40°39' W 074°04'0 0.0
2018-Jun-15 03:53N 40°39' W 074°04'4 9.9
2018-Jun-15 03:27N 40°42' W 074°01'4 9.6
2018-Jun-15 03:01N 40°39' W 074°04'0 0.0
2018-Jun-15 02:29N 40°39' W 074°04'4 9.0
2018-Jun-15 02:00N 40°42' W 074°01'4 8.7
2018-Jun-15 01:30N 40°39' W 074°04'0 0.1
2018-Jun-15 01:00N 40°39' W 074°04'4 8.5
2018-Jun-15 00:30N 40°42' W 074°01'4 8.6
2018-Jun-15 00:00N 40°39' W 074°04'0 0.0
2018-Jun-14 23:25N 40°39' W 074°04'4 9.5
2018-Jun-14 22:58N 40°42' W 074°01'4 9.1
2018-Jun-14 22:31N 40°39' W 074°04'4 8.1
2018-Jun-14 22:00N 40°42' W 074°01'2 3.5
2018-Jun-14 21:30N 40°41' W 074°02'2 3.3
2018-Jun-14 21:00N 40°39' W 074°04'3 5.7
2018-Jun-14 20:30N 40°42' W 074°01'4 1.4
2018-Jun-14 17:58N 40°39' W 074°04'4 8.4
2018-Jun-14 17:27N 40°42' W 074°01'4 9.4
2018-Jun-14 17:00N 40°39' W 074°04'0 0.0
2018-Jun-14 16:30N 40°39' W 074°04'0 0.6
2018-Jun-14 16:00N 40°39' W 074°04'0 0.6
2018-Jun-14 15:30N 40°39' W 074°04'0 0.0
2018-Jun-14 14:58N 40°39' W 074°04'0 0.0
2018-Jun-14 14:28N 40°39' W 074°04'0 0.0
2018-Jun-14 13:58N 40°39' W 074°04'0 0.0
2018-Jun-14 13:28N 40°39' W 074°04'0 0.0
2018-Jun-14 12:58N 40°39' W 074°04'0 0.0
2018-Jun-14 12:28N 40°39' W 074°04'0 0.0
2018-Jun-14 11:58N 40°39' W 074°04'0 0.0
2018-Jun-14 11:28N 40°39' W 074°04'0 0.0
2018-Jun-14 10:58N 40°39' W 074°04'0 0.0
2018-Jun-14 10:28N 40°39' W 074°04'0 0.0
2018-Jun-14 09:58N 40°39' W 074°04'0 0.0
2018-Jun-14 09:28N 40°39' W 074°04'0 0.0
2018-Jun-14 09:00N 40°39' W 074°04'0 0.0
2018-Jun-14 08:30N 40°39' W 074°04'0 0.0
2018-Jun-14 08:00N 40°39' W 074°04'0 0.0
2018-Jun-14 07:30N 40°39' W 074°04'0 0.0
2018-Jun-14 07:00N 40°39' W 074°04'0 0.0
2018-Jun-14 06:30N 40°39' W 074°04'0 0.0
2018-Jun-14 06:00N 40°39' W 074°04'0 0.0
2018-Jun-14 05:30N 40°39' W 074°04'0 0.0
2018-Jun-14 05:00N 40°39' W 074°04'0 0.0
2018-Jun-14 04:30N 40°39' W 074°04'0 0.0
2018-Jun-14 04:00N 40°39' W 074°04'0 0.0
2018-Jun-14 03:27N 40°39' W 074°04'0 0.0
2018-Jun-14 02:57N 40°39' W 074°04'0 0.0
2018-Jun-14 02:30N 40°39' W 074°04'0 0.0
2018-Jun-14 02:00N 40°39' W 074°04'0 0.0
2018-Jun-14 01:30N 40°39' W 074°04'0 0.0
2018-Jun-14 01:00N 40°39' W 074°04'0 0.0
2018-Jun-14 00:30N 40°39' W 074°04'0 0.0
2018-Jun-14 00:00N 40°39' W 074°04'0 0.0
2018-Jun-13 23:30N 40°39' W 074°04'0 0.0
2018-Jun-13 23:00N 40°39' W 074°04'0 0.0
2018-Jun-13 22:30N 40°39' W 074°04'0 0.0
2018-Jun-13 22:00N 40°39' W 074°04'0 0.0
2018-Jun-13 21:30N 40°39' W 074°04'0 0.0
2018-Jun-13 21:00N 40°39' W 074°04'0 0.0
2018-Jun-13 20:30N 40°39' W 074°04'0 0.0
2018-Jun-13 20:00N 40°39' W 074°04'0 0.0
2018-Jun-13 19:30N 40°39' W 074°04'0 0.0
2018-Jun-13 19:00N 40°39' W 074°04'0 0.0
2018-Jun-13 18:30N 40°39' W 074°04'0 0.0
2018-Jun-13 17:57N 40°39' W 074°04'0 0.0
2018-Jun-13 17:30N 40°39' W 074°04'0 0.0
2018-Jun-13 17:00N 40°39' W 074°04'0 0.0
2018-Jun-13 16:30N 40°39' W 074°04'0 0.0
2018-Jun-13 16:00N 40°39' W 074°04'0 0.0
2018-Jun-13 15:30N 40°39' W 074°04'0 0.0
2018-Jun-13 15:00N 40°39' W 074°04'0 0.0
2018-Jun-13 14:30N 40°39' W 074°04'0 0.0
2018-Jun-13 14:00N 40°39' W 074°04'0 0.0
2018-Jun-13 13:30N 40°39' W 074°04'0 0.0
2018-Jun-13 13:00N 40°39' W 074°04'0 0.0
2018-Jun-13 12:30N 40°39' W 074°04'0 0.0
2018-Jun-13 12:00N 40°39' W 074°04'0 0.0
2018-Jun-13 11:30N 40°39' W 074°04'0 0.0
2018-Jun-13 11:00N 40°39' W 074°04'0 0.0
2018-Jun-13 10:30N 40°39' W 074°04'0 0.0
2018-Jun-13 10:00N 40°39' W 074°04'0 0.0
2018-Jun-13 09:30N 40°39' W 074°04'0 0.0
2018-Jun-13 08:57N 40°39' W 074°04'0 0.0
2018-Jun-13 08:30N 40°39' W 074°04'0 0.0
2018-Jun-13 08:00N 40°39' W 074°04'0 0.0
2018-Jun-13 07:30N 40°39' W 074°04'0 0.0
2018-Jun-13 07:00N 40°39' W 074°04'0 0.0
2018-Jun-13 06:30N 40°39' W 074°04'0 0.0
2018-Jun-13 06:00N 40°39' W 074°04'0 0.0
2018-Jun-13 05:30N 40°39' W 074°04'0 0.0
2018-Jun-13 05:00N 40°39' W 074°04'0 0.0
2018-Jun-13 04:30N 40°39' W 074°04'0 0.0
2018-Jun-13 04:00N 40°39' W 074°04'0 0.0
2018-Jun-13 03:30N 40°39' W 074°04'0 0.0
2018-Jun-13 03:00N 40°39' W 074°04'0 0.0
2018-Jun-13 02:30N 40°38' W 074°04'0 0.0
2018-Jun-13 02:00N 40°39' W 074°04'0 0.0
2018-Jun-13 01:30N 40°39' W 074°04'0 0.0
2018-Jun-13 01:00N 40°39' W 074°04'0 0.0
2018-Jun-13 00:30N 40°39' W 074°04'0 0.0
2018-Jun-13 00:00N 40°39' W 074°04'0 0.0
2018-Jun-12 23:30N 40°39' W 074°04'0 0.0
2018-Jun-12 23:00N 40°39' W 074°04'0 0.0
2018-Jun-12 22:30N 40°39' W 074°04'0 0.0
2018-Jun-12 22:00N 40°39' W 074°04'0 0.0
2018-Jun-12 21:30N 40°39' W 074°04'0 0.0
2018-Jun-12 21:00N 40°39' W 074°04'0 0.0
2018-Jun-12 20:30N 40°39' W 074°04'0 0.0
2018-Jun-12 20:00N 40°39' W 074°04'0 0.0
2018-Jun-12 19:30N 40°39' W 074°04'0 0.0
2018-Jun-12 19:00N 40°39' W 074°04'0 0.0
2018-Jun-12 18:30N 40°39' W 074°04'0 0.0
2018-Jun-12 18:00N 40°39' W 074°04'0 0.0
2018-Jun-12 17:30N 40°39' W 074°04'0 0.0
2018-Jun-12 17:00N 40°39' W 074°04'0 0.0
2018-Jun-12 16:30N 40°39' W 074°04'0 0.0
2018-Jun-12 16:00N 40°39' W 074°04'0 0.0
2018-Jun-12 15:30N 40°39' W 074°04'0 0.0
2018-Jun-12 14:57N 40°39' W 074°04'0 0.0
2018-Jun-12 14:30N 40°39' W 074°04'0 0.0
2018-Jun-12 14:00N 40°39' W 074°04'0 0.0
2018-Jun-12 13:30N 40°39' W 074°04'0 0.0
2018-Jun-12 13:00N 40°39' W 074°04'0 0.0
2018-Jun-12 12:30N 40°39' W 074°04'0 0.0
2018-Jun-12 12:00N 40°39' W 074°04'0 0.0
2018-Jun-12 11:30N 40°39' W 074°04'0 0.0
2018-Jun-12 10:59N 40°39' W 074°04'0 0.0
2018-Jun-12 10:26N 40°39' W 074°04'0 0.0
2018-Jun-12 09:56N 40°39' W 074°04'0 0.0
2018-Jun-12 09:29N 40°39' W 074°04'0 0.0
2018-Jun-12 06:41N 40°39' W 074°04'0 0.0
2018-Jun-12 06:29N 40°39' W 074°04'0 0.0
2018-Jun-12 05:50N 40°39' W 074°04'0 0.0
2018-Jun-12 05:29N 40°39' W 074°04'0 0.0
2018-Jun-12 04:44N 40°39' W 074°04'0 0.0
2018-Jun-12 04:20N 40°39' W 074°04'0 0.0
2018-Jun-12 02:50N 40°39' W 074°04'0 0.0
2018-Jun-12 02:17N 40°39' W 074°04'0 0.0
2018-Jun-12 01:56N 40°39' W 074°04'0 0.0
2018-Jun-12 01:11N 40°39' W 074°04'0 0.0
2018-Jun-12 00:41N 40°39' W 074°04'0 0.0
2018-Jun-12 00:14N 40°39' W 074°04'0 0.0
2018-Jun-11 23:56N 40°39' W 074°04'0 0.0
2018-Jun-11 23:29N 40°39' W 074°04'0 0.0
2018-Jun-11 22:56N 40°39' W 074°04'0 0.0
2018-Jun-11 22:20N 40°38' W 074°04'0 0.0
2018-Jun-11 21:35N 40°39' W 074°04'0 0.1
2018-Jun-11 21:29N 40°39' W 074°04'0 0.0
2018-Jun-11 20:41N 40°39' W 074°04'0 0.0
2018-Jun-11 20:08N 40°39' W 074°04'0 0.0
2018-Jun-11 14:53N 40°39' W 074°04'0 0.0
2018-Jun-11 11:20N 40°39' W 074°04'0 0.0
2018-Jun-11 10:53N 40°39' W 074°04'0 0.0
2018-Jun-11 10:29N 40°39' W 074°04'0 0.0
2018-Jun-11 09:59N 40°39' W 074°04'0 0.0
2018-Jun-11 09:20N 40°39' W 074°04'0 0.0
2018-Jun-11 08:50N 40°39' W 074°04'0 0.0
2018-Jun-11 08:29N 40°39' W 074°04'0 0.0
2018-Jun-11 07:47N 40°39' W 074°04'0 0.0
2018-Jun-11 07:29N 40°39' W 074°04'0 0.0
2018-Jun-11 06:59N 40°39' W 074°04'0 0.0
2018-Jun-11 06:29N 40°39' W 074°04'0 0.0
2018-Jun-11 05:59N 40°39' W 074°04'0 0.0
2018-Jun-11 05:29N 40°39' W 074°04'0 0.0
2018-Jun-11 04:59N 40°39' W 074°04'0 0.0
2018-Jun-11 04:29N 40°39' W 074°04'0 0.0
2018-Jun-11 03:59N 40°39' W 074°04'0 0.0
2018-Jun-11 03:29N 40°39' W 074°04'0 0.0
2018-Jun-11 02:59N 40°39' W 074°04'0 0.0
2018-Jun-11 02:29N 40°39' W 074°04'0 0.0
2018-Jun-11 01:59N 40°39' W 074°04'0 0.0
2018-Jun-11 01:29N 40°39' W 074°04'0 0.0
2018-Jun-11 00:59N 40°39' W 074°04'0 0.0
2018-Jun-11 00:29N 40°39' W 074°04'0 0.0
2018-Jun-10 23:59N 40°39' W 074°04'0 0.0
2018-Jun-10 23:29N 40°39' W 074°04'0 0.0
2018-Jun-10 22:59N 40°39' W 074°04'0 0.0
2018-Jun-10 22:29N 40°39' W 074°04'0 0.0
2018-Jun-10 21:59N 40°39' W 074°04'0 0.0
2018-Jun-10 21:29N 40°39' W 074°04'0 0.0
2018-Jun-10 20:59N 40°39' W 074°04'0 0.0
2018-Jun-10 20:29N 40°39' W 074°04'0 0.0
2018-Jun-10 19:59N 40°39' W 074°04'0 0.0
2018-Jun-10 19:29N 40°39' W 074°04'0 0.0
2018-Jun-10 18:59N 40°39' W 074°04'0 0.0
2018-Jun-10 18:29N 40°39' W 074°04'0 0.0
2018-Jun-10 17:59N 40°39' W 074°04'0 0.0
2018-Jun-10 17:29N 40°39' W 074°04'0 0.0
2018-Jun-10 16:59N 40°39' W 074°04'0 0.0
2018-Jun-10 16:29N 40°39' W 074°04'0 0.0
2018-Jun-10 15:59N 40°39' W 074°04'0 0.0
2018-Jun-10 15:29N 40°39' W 074°04'0 0.0
2018-Jun-10 14:59N 40°39' W 074°04'0 0.0
2018-Jun-10 13:59N 40°39' W 074°04'0 0.0
2018-Jun-10 13:29N 40°39' W 074°04'0 0.0
2018-Jun-10 12:59N 40°39' W 074°04'0 0.0
2018-Jun-10 12:29N 40°39' W 074°04'0 0.0
2018-Jun-10 11:59N 40°39' W 074°04'0 0.0
2018-Jun-10 11:29N 40°39' W 074°04'0 0.0
2018-Jun-10 10:59N 40°39' W 074°04'0 0.0
2018-Jun-10 10:29N 40°39' W 074°04'0 0.0
2018-Jun-10 09:59N 40°39' W 074°04'0 0.0
2018-Jun-10 09:29N 40°39' W 074°04'0 0.0
2018-Jun-10 08:59N 40°39' W 074°04'0 0.0
2018-Jun-10 08:29N 40°39' W 074°04'0 0.0
2018-Jun-10 07:59N 40°39' W 074°04'0 0.0
2018-Jun-10 07:29N 40°39' W 074°04'0 0.0
2018-Jun-10 06:59N 40°39' W 074°04'0 0.0
2018-Jun-10 06:29N 40°39' W 074°04'0 0.0
2018-Jun-10 05:59N 40°39' W 074°04'0 0.0
2018-Jun-10 05:29N 40°39' W 074°04'0 0.0
2018-Jun-10 04:59N 40°39' W 074°04'0 0.0
2018-Jun-10 04:29N 40°39' W 074°04'0 0.0
2018-Jun-10 03:59N 40°39' W 074°04'0 0.0
2018-Jun-10 03:29N 40°39' W 074°04'0 0.0
2018-Jun-10 02:59N 40°39' W 074°04'0 0.0
2018-Jun-10 02:29N 40°39' W 074°04'0 0.0
2018-Jun-10 01:59N 40°39' W 074°04'0 0.0
2018-Jun-10 01:29N 40°39' W 074°04'0 0.0
2018-Jun-10 00:59N 40°39' W 074°04'0 0.0
2018-Jun-10 00:29N 40°39' W 074°04'0 0.0
2018-Jun-09 23:59N 40°39' W 074°04'0 0.0
2018-Jun-09 23:29N 40°39' W 074°04'0 0.0
2018-Jun-09 22:59N 40°39' W 074°04'0 0.0
2018-Jun-09 22:29N 40°38' W 074°04'0 0.0
2018-Jun-09 21:59N 40°39' W 074°04'0 0.0
2018-Jun-09 21:29N 40°39' W 074°04'0 0.0
2018-Jun-09 20:59N 40°39' W 074°04'0 0.0
2018-Jun-09 20:29N 40°39' W 074°04'0 0.0
2018-Jun-09 19:59N 40°39' W 074°04'0 0.0
2018-Jun-09 19:29N 40°39' W 074°04'0 0.0
2018-Jun-09 18:59N 40°39' W 074°04'0 0.0
2018-Jun-09 18:29N 40°39' W 074°04'0 0.0
2018-Jun-09 17:59N 40°39' W 074°04'0 0.0
2018-Jun-09 17:29N 40°39' W 074°04'0 0.0
2018-Jun-09 16:59N 40°39' W 074°04'0 0.0
2018-Jun-09 16:29N 40°39' W 074°04'0 0.0
2018-Jun-09 15:59N 40°39' W 074°04'0 0.0
2018-Jun-09 14:59N 40°39' W 074°04'0 0.0
2018-Jun-09 14:29N 40°39' W 074°04'0 0.0
2018-Jun-09 13:59N 40°39' W 074°04'0 0.0
2018-Jun-09 13:29N 40°39' W 074°04'0 0.0
2018-Jun-09 12:59N 40°39' W 074°04'0 0.0
2018-Jun-09 12:29N 40°39' W 074°04'0 0.0
2018-Jun-09 11:59N 40°39' W 074°04'0 0.0
2018-Jun-09 11:29N 40°39' W 074°04'0 0.0
2018-Jun-09 10:59N 40°39' W 074°04'0 0.0
2018-Jun-09 10:29N 40°39' W 074°04'0 0.0
2018-Jun-09 09:59N 40°39' W 074°04'0 0.0
2018-Jun-09 09:29N 40°39' W 074°04'0 0.0
2018-Jun-09 08:59N 40°39' W 074°04'0 0.0
2018-Jun-09 08:29N 40°39' W 074°04'0 0.0
2018-Jun-09 07:59N 40°39' W 074°04'0 0.0
2018-Jun-09 07:29N 40°39' W 074°04'0 0.0
2018-Jun-09 06:59N 40°38' W 074°04'  
Track history (hours):
 
Tides and Currents Weather Stations Pressure Air Temp Water Temp Dewpoint Dewpoint Depression Visibility Wind Speed Wind Dir Waves Ship Positions

Sen. John J. Marchi

Owner: CITY OF NEW YORK, Brooklyn, NY. More information available from US FCC via Universal Licensing System and Coast Guard Vessel Documentation Center.

Last reported at 2018-Jun-19 06:59 UTC. Time now 2018-Jun-19 06:58 UTC.
Position N 40°39' W 074°04'.

Length 95 m; draft 4 m.

Type: Passenger vessel. MMSI: 366952870.

Date/timePositionNaut miles runAvg speedWind from/ knotsBaromVisibWave heightAir tempDewpointWater temp
2018-Jun-19 06:59N 40°39' W 074°04'0 0.0
2018-Jun-19 06:29N 40°39' W 074°04'0 0.0
2018-Jun-19 05:59N 40°39' W 074°04'0 0.0
2018-Jun-19 05:29N 40°39' W 074°04'0 0.0
2018-Jun-19 04:59N 40°39' W 074°04'0 0.0
2018-Jun-19 04:30N 40°39' W 074°04'0 0.0
2018-Jun-19 04:00N 40°39' W 074°04'4 8.6
2018-Jun-19 03:31N 40°42' W 074°01'4 8.6
2018-Jun-19 03:00N 40°39' W 074°04'0 0.0
2018-Jun-19 02:30N 40°39' W 074°04'4 8.7
2018-Jun-19 02:00N 40°42' W 074°01'4 8.6
2018-Jun-19 01:30N 40°39' W 074°04'0 0.1
2018-Jun-19 01:00N 40°39' W 074°04'0 0.0
2018-Jun-19 00:30N 40°39' W 074°04'4 8.7
2018-Jun-19 00:00N 40°42' W 074°01'4 8.6
2018-Jun-18 23:31N 40°39' W 074°04'1 2.9
2018-Jun-18 23:00N 40°40' W 074°03'1 2.7
2018-Jun-18 22:30N 40°41' W 074°02'2 3.2
2018-Jun-18 22:00N 40°40' W 074°03'2 3.9
2018-Jun-18 21:30N 40°41' W 074°02'3 5.4
2018-Jun-18 21:00N 40°39' W 074°04'3 6.7
2018-Jun-18 20:31N 40°42' W 074°01'4 7.6
2018-Jun-18 20:01N 40°39' W 074°04'0 0.1
2018-Jun-18 17:33N 40°39' W 074°04'0 8.6
2018-Jun-18 17:30N 40°39' W 074°04'4 7.5
2018-Jun-18 16:59N 40°42' W 074°01'4 8.7
2018-Jun-18 16:29N 40°39' W 074°04'4 9.0
2018-Jun-18 16:01N 40°42' W 074°01'4 7.0
2018-Jun-18 15:24N 40°39' W 074°04'411.0
2018-Jun-18 15:00N 40°42' W 074°01'4 8.5
2018-Jun-18 14:30N 40°39' W 074°04'0 0.0
2018-Jun-18 13:37N 40°39' W 074°04'112.3
2018-Jun-18 13:30N 40°40' W 074°03'2 3.1
2018-Jun-18 13:00N 40°41' W 074°02'1 2.9
2018-Jun-18 12:31N 40°40' W 074°03'1 2.5
2018-Jun-18 12:01N 40°41' W 074°02'3 5.4
2018-Jun-18 11:31N 40°39' W 074°04'4 7.8
2018-Jun-18 11:01N 40°42' W 074°01'4 7.8
2018-Jun-18 10:31N 40°39' W 074°04'2 4.0
2018-Jun-18 10:01N 40°37' W 074°03'2 3.9
2018-Jun-18 09:30N 40°39' W 074°04'0 0.0
2018-Jun-18 09:00N 40°39' W 074°04'0 0.0
2018-Jun-18 08:31N 40°39' W 074°04'0 0.0
2018-Jun-18 08:00N 40°39' W 074°04'0 0.1
2018-Jun-18 07:30N 40°39' W 074°04'0 0.0
2018-Jun-18 07:00N 40°39' W 074°04'0 0.0
2018-Jun-18 06:30N 40°39' W 074°04'0 0.0
2018-Jun-18 06:00N 40°39' W 074°04'0 0.0
2018-Jun-18 05:30N 40°39' W 074°04'0 0.0
2018-Jun-18 05:00N 40°39' W 074°04'0 0.0
2018-Jun-18 04:30N 40°39' W 074°04'0 0.0
2018-Jun-18 04:01N 40°39' W 074°04'4 8.6
2018-Jun-18 03:30N 40°42' W 074°01'4 8.5
2018-Jun-18 03:00N 40°39' W 074°04'4 8.5
2018-Jun-18 02:30N 40°42' W 074°01'4 8.5
2018-Jun-18 02:00N 40°39' W 074°04'4 8.5
2018-Jun-18 01:29N 40°42' W 074°01'4 8.9
2018-Jun-18 01:00N 40°39' W 074°04'4 8.7
2018-Jun-18 00:31N 40°42' W 074°01'4 7.7
2018-Jun-17 23:57N 40°39' W 074°04'0 0.1
2018-Jun-17 23:25N 40°39' W 074°04'410.4
2018-Jun-17 23:00N 40°42' W 074°01'4 8.7
2018-Jun-17 22:30N 40°39' W 074°04'0 0.0
2018-Jun-17 22:00N 40°39' W 074°04'4 8.5
2018-Jun-17 21:30N 40°42' W 074°01'4 8.8
2018-Jun-17 21:00N 40°39' W 074°04'0 0.1
2018-Jun-17 20:31N 40°39' W 074°04'4 8.5
2018-Jun-17 20:00N 40°42' W 074°01'4 8.6
2018-Jun-17 19:30N 40°39' W 074°04'0 0.1
2018-Jun-17 19:00N 40°39' W 074°04'4 8.9
2018-Jun-17 18:30N 40°42' W 074°01'4 8.6
2018-Jun-17 18:00N 40°39' W 074°04'0 0.0
2018-Jun-17 17:30N 40°39' W 074°04'4 8.6
2018-Jun-17 17:00N 40°42' W 074°01'4 8.6
2018-Jun-17 16:31N 40°39' W 074°04'0 0.0
2018-Jun-17 15:59N 40°39' W 074°04'4 8.9
2018-Jun-17 15:30N 40°42' W 074°01'4 8.6
2018-Jun-17 15:00N 40°39' W 074°04'4 8.7
2018-Jun-17 14:30N 40°42' W 074°01'4 8.6
2018-Jun-17 14:00N 40°39' W 074°04'4 8.6
2018-Jun-17 13:31N 40°42' W 074°01'4 8.5
2018-Jun-17 13:00N 40°39' W 074°04'4 8.5
2018-Jun-17 12:30N 40°42' W 074°01'4 8.6
2018-Jun-17 12:00N 40°39' W 074°04'2 3.3
2018-Jun-17 11:30N 40°37' W 074°03'2 3.3
2018-Jun-17 11:00N 40°39' W 074°04'0 0.0
2018-Jun-17 10:30N 40°39' W 074°04'0 0.0
2018-Jun-17 10:00N 40°39' W 074°04'0 0.0
2018-Jun-17 09:30N 40°39' W 074°04'0 0.0
2018-Jun-17 09:00N 40°39' W 074°04'0 0.0
2018-Jun-17 08:30N 40°39' W 074°04'0 0.0
2018-Jun-17 08:00N 40°39' W 074°04'0 0.0
2018-Jun-17 07:30N 40°39' W 074°04'0 0.0
2018-Jun-17 07:00N 40°39' W 074°04'0 0.0
2018-Jun-17 06:27N 40°39' W 074°04'0 0.0
2018-Jun-17 06:00N 40°39' W 074°04'2 4.5
2018-Jun-17 05:30N 40°37' W 074°03'2 4.5
2018-Jun-17 05:00N 40°39' W 074°04'0 0.0
2018-Jun-17 04:30N 40°39' W 074°04'0 0.0
2018-Jun-17 04:00N 40°39' W 074°04'4 8.7
2018-Jun-17 03:30N 40°42' W 074°01'4 7.6
2018-Jun-17 02:57N 40°39' W 074°04'4 9.9
2018-Jun-17 02:30N 40°42' W 074°01'4 8.6
2018-Jun-17 02:01N 40°39' W 074°04'4 8.4
2018-Jun-17 01:30N 40°42' W 074°01'4 8.9
2018-Jun-17 01:00N 40°39' W 074°04'4 8.7
2018-Jun-17 00:31N 40°42' W 074°01'4 8.6
2018-Jun-17 00:00N 40°39' W 074°04'0 0.0
2018-Jun-16 23:28N 40°39' W 074°04'4 8.0
2018-Jun-16 22:56N 40°42' W 074°01'410.3
2018-Jun-16 22:30N 40°39' W 074°04'0 0.7
2018-Jun-16 22:01N 40°39' W 074°04'4 8.0
2018-Jun-16 21:30N 40°42' W 074°01'4 8.6
2018-Jun-16 21:01N 40°39' W 074°04'0 0.1
2018-Jun-16 20:31N 40°39' W 074°04'4 8.6
2018-Jun-16 20:00N 40°42' W 074°01'4 8.6
2018-Jun-16 19:30N 40°39' W 074°04'0 0.1
2018-Jun-16 19:01N 40°39' W 074°04'4 8.6
2018-Jun-16 18:30N 40°42' W 074°01'4 8.6
2018-Jun-16 18:00N 40°39' W 074°04'0 0.0
2018-Jun-16 17:30N 40°39' W 074°04'4 8.6
2018-Jun-16 17:00N 40°42' W 074°01'4 8.7
2018-Jun-16 16:31N 40°39' W 074°04'0 0.0
2018-Jun-16 16:00N 40°39' W 074°04'4 8.7
2018-Jun-16 15:30N 40°42' W 074°01'4 8.6
2018-Jun-16 15:00N 40°39' W 074°04'4 8.6
2018-Jun-16 14:30N 40°42' W 074°01'4 8.6
2018-Jun-16 14:01N 40°39' W 074°04'4 8.6
2018-Jun-16 13:31N 40°42' W 074°01'4 8.6
2018-Jun-16 13:01N 40°39' W 074°04'4 8.6
2018-Jun-16 12:31N 40°42' W 074°01'4 8.6
2018-Jun-16 12:00N 40°39' W 074°04'0 0.0
2018-Jun-16 11:30N 40°39' W 074°04'0 0.0
2018-Jun-16 11:00N 40°39' W 074°04'0 0.0
2018-Jun-16 10:30N 40°39' W 074°04'0 0.0
2018-Jun-16 10:00N 40°39' W 074°04'0 0.0
2018-Jun-16 09:30N 40°39' W 074°04'0 0.0
2018-Jun-16 08:59N 40°39' W 074°04'0 0.0
2018-Jun-16 08:29N 40°39' W 074°04'0 0.0
2018-Jun-16 07:59N 40°39' W 074°04'0 0.0
2018-Jun-16 07:29N 40°39' W 074°04'0 0.0
2018-Jun-16 06:59N 40°39' W 074°04'0 0.0
2018-Jun-16 06:29N 40°39' W 074°04'0 0.0
2018-Jun-16 05:59N 40°39' W 074°04'0 0.0
2018-Jun-16 05:29N 40°39' W 074°04'0 0.0
2018-Jun-16 04:59N 40°39' W 074°04'0 0.0
2018-Jun-16 04:29N 40°39' W 074°04'0 0.0
2018-Jun-16 04:00N 40°39' W 074°04'4 8.8
2018-Jun-16 03:30N 40°42' W 074°01'4 8.5
2018-Jun-16 03:00N 40°39' W 074°04'0 0.0
2018-Jun-16 02:26N 40°39' W 074°04'410.1
2018-Jun-16 02:00N 40°42' W 074°01'4 8.6
2018-Jun-16 01:30N 40°39' W 074°04'0 0.2
2018-Jun-16 01:01N 40°39' W 074°04'4 8.4
2018-Jun-16 00:30N 40°42' W 074°01'4 8.6
2018-Jun-16 00:00N 40°39' W 074°04'0 0.0
2018-Jun-15 23:30N 40°39' W 074°04'4 8.5
2018-Jun-15 23:00N 40°42' W 074°01'4 8.7
2018-Jun-15 22:30N 40°39' W 074°04'4 8.5
2018-Jun-15 22:00N 40°42' W 074°01'2 4.9
2018-Jun-15 21:30N 40°40' W 074°03'1 2.1
2018-Jun-15 21:00N 40°39' W 074°03'3 5.3
2018-Jun-15 20:30N 40°41' W 074°02'3 6.7
2018-Jun-15 20:00N 40°39' W 074°04'0 0.0
2018-Jun-15 19:30N 40°39' W 074°04'0 0.0
2018-Jun-15 19:00N 40°39' W 074°04'4 8.6
2018-Jun-15 18:30N 40°42' W 074°01'4 8.7
2018-Jun-15 18:00N 40°39' W 074°04'0 0.0
2018-Jun-15 17:31N 40°39' W 074°04'0 0.2
2018-Jun-15 17:00N 40°39' W 074°04'0 0.0
2018-Jun-15 16:30N 40°39' W 074°04'0 0.0
2018-Jun-15 16:01N 40°39' W 074°04'0 0.0
2018-Jun-15 15:30N 40°39' W 074°04'0 0.0
2018-Jun-15 15:00N 40°39' W 074°04'0 0.0
2018-Jun-15 14:30N 40°39' W 074°04'0 0.1
2018-Jun-15 14:00N 40°39' W 074°04'1 2.9
2018-Jun-15 13:30N 40°40' W 074°03'2 3.4
2018-Jun-15 13:01N 40°41' W 074°02'1 2.7
2018-Jun-15 12:30N 40°40' W 074°03'1 2.9
2018-Jun-15 12:00N 40°41' W 074°02'3 5.2
2018-Jun-15 11:31N 40°39' W 074°04'3 6.1
2018-Jun-15 11:01N 40°42' W 074°01'4 7.2
2018-Jun-15 10:30N 40°39' W 074°04'0 0.0
2018-Jun-15 10:00N 40°39' W 074°04'0 0.0
2018-Jun-15 09:30N 40°39' W 074°04'0 0.0
2018-Jun-15 09:00N 40°39' W 074°04'0 0.0
2018-Jun-15 08:29N 40°39' W 074°04'0 0.0
2018-Jun-15 07:59N 40°39' W 074°04'0 0.0
2018-Jun-15 07:29N 40°39' W 074°04'0 0.0
2018-Jun-15 06:59N 40°39' W 074°04'0 0.0
2018-Jun-15 06:29N 40°39' W 074°04'0 0.0
2018-Jun-15 05:59N 40°39' W 074°04'0 0.0
2018-Jun-15 05:29N 40°39' W 074°04'0 0.0
2018-Jun-15 04:56N 40°39' W 074°04'0 0.0
2018-Jun-15 04:29N 40°39' W 074°04'0 0.0
2018-Jun-15 03:53N 40°39' W 074°04'4 9.9
2018-Jun-15 03:27N 40°42' W 074°01'4 9.6
2018-Jun-15 03:01N 40°39' W 074°04'0 0.0
2018-Jun-15 02:29N 40°39' W 074°04'4 9.0
2018-Jun-15 02:00N 40°42' W 074°01'4 8.7
2018-Jun-15 01:30N 40°39' W 074°04'0 0.1
2018-Jun-15 01:00N 40°39' W 074°04'4 8.5
2018-Jun-15 00:30N 40°42' W 074°01'4 8.6
2018-Jun-15 00:00N 40°39' W 074°04'0 0.0
2018-Jun-14 23:25N 40°39' W 074°04'4 9.5
2018-Jun-14 22:58N 40°42' W 074°01'4 9.1
2018-Jun-14 22:31N 40°39' W 074°04'4 8.1
2018-Jun-14 22:00N 40°42' W 074°01'2 3.5
2018-Jun-14 21:30N 40°41' W 074°02'2 3.3
2018-Jun-14 21:00N 40°39' W 074°04'3 5.7
2018-Jun-14 20:30N 40°42' W 074°01'4 1.4
2018-Jun-14 17:58N 40°39' W 074°04'4 8.4
2018-Jun-14 17:27N 40°42' W 074°01'4 9.4
2018-Jun-14 17:00N 40°39' W 074°04'0 0.0
2018-Jun-14 16:30N 40°39' W 074°04'0 0.6
2018-Jun-14 16:00N 40°39' W 074°04'0 0.6
2018-Jun-14 15:30N 40°39' W 074°04'0 0.0
2018-Jun-14 14:58N 40°39' W 074°04'0 0.0
2018-Jun-14 14:28N 40°39' W 074°04'0 0.0
2018-Jun-14 13:58N 40°39' W 074°04'0 0.0
2018-Jun-14 13:28N 40°39' W 074°04'0 0.0
2018-Jun-14 12:58N 40°39' W 074°04'0 0.0
2018-Jun-14 12:28N 40°39' W 074°04'0 0.0
2018-Jun-14 11:58N 40°39' W 074°04'0 0.0
2018-Jun-14 11:28N 40°39' W 074°04'0 0.0
2018-Jun-14 10:58N 40°39' W 074°04'0 0.0
2018-Jun-14 10:28N 40°39' W 074°04'0 0.0
2018-Jun-14 09:58N 40°39' W 074°04'0 0.0
2018-Jun-14 09:28N 40°39' W 074°04'0 0.0
2018-Jun-14 09:00N 40°39' W 074°04'0 0.0
2018-Jun-14 08:30N 40°39' W 074°04'0 0.0
2018-Jun-14 08:00N 40°39' W 074°04'0 0.0
2018-Jun-14 07:30N 40°39' W 074°04'0 0.0
2018-Jun-14 07:00N 40°39' W 074°04'0 0.0
2018-Jun-14 06:30N 40°39' W 074°04'0 0.0
2018-Jun-14 06:00N 40°39' W 074°04'0 0.0
2018-Jun-14 05:30N 40°39' W 074°04'0 0.0
2018-Jun-14 05:00N 40°39' W 074°04'0 0.0
2018-Jun-14 04:30N 40°39' W 074°04'0 0.0
2018-Jun-14 04:00N 40°39' W 074°04'0 0.0
2018-Jun-14 03:27N 40°39' W 074°04'0 0.0
2018-Jun-14 02:57N 40°39' W 074°04'0 0.0
2018-Jun-14 02:30N 40°39' W 074°04'0 0.0
2018-Jun-14 02:00N 40°39' W 074°04'0 0.0
2018-Jun-14 01:30N 40°39' W 074°04'0 0.0
2018-Jun-14 01:00N 40°39' W 074°04'0 0.0
2018-Jun-14 00:30N 40°39' W 074°04'0 0.0
2018-Jun-14 00:00N 40°39' W 074°04'0 0.0
2018-Jun-13 23:30N 40°39' W 074°04'0 0.0
2018-Jun-13 23:00N 40°39' W 074°04'0 0.0
2018-Jun-13 22:30N 40°39' W 074°04'0 0.0
2018-Jun-13 22:00N 40°39' W 074°04'0 0.0
2018-Jun-13 21:30N 40°39' W 074°04'0 0.0
2018-Jun-13 21:00N 40°39' W 074°04'0 0.0
2018-Jun-13 20:30N 40°39' W 074°04'0 0.0
2018-Jun-13 20:00N 40°39' W 074°04'0 0.0
2018-Jun-13 19:30N 40°39' W 074°04'0 0.0
2018-Jun-13 19:00N 40°39' W 074°04'0 0.0
2018-Jun-13 18:30N 40°39' W 074°04'0 0.0
2018-Jun-13 17:57N 40°39' W 074°04'0 0.0
2018-Jun-13 17:30N 40°39' W 074°04'0 0.0
2018-Jun-13 17:00N 40°39' W 074°04'0 0.0
2018-Jun-13 16:30N 40°39' W 074°04'0 0.0
2018-Jun-13 16:00N 40°39' W 074°04'0 0.0
2018-Jun-13 15:30N 40°39' W 074°04'0 0.0
2018-Jun-13 15:00N 40°39' W 074°04'0 0.0
2018-Jun-13 14:30N 40°39' W 074°04'0 0.0
2018-Jun-13 14:00N 40°39' W 074°04'0 0.0
2018-Jun-13 13:30N 40°39' W 074°04'0 0.0
2018-Jun-13 13:00N 40°39' W 074°04'0 0.0
2018-Jun-13 12:30N 40°39' W 074°04'0 0.0
2018-Jun-13 12:00N 40°39' W 074°04'0 0.0
2018-Jun-13 11:30N 40°39' W 074°04'0 0.0
2018-Jun-13 11:00N 40°39' W 074°04'0 0.0
2018-Jun-13 10:30N 40°39' W 074°04'0 0.0
2018-Jun-13 10:00N 40°39' W 074°04'0 0.0
2018-Jun-13 09:30N 40°39' W 074°04'0 0.0
2018-Jun-13 08:57N 40°39' W 074°04'0 0.0
2018-Jun-13 08:30N 40°39' W 074°04'0 0.0
2018-Jun-13 08:00N 40°39' W 074°04'0 0.0
2018-Jun-13 07:30N 40°39' W 074°04'0 0.0
2018-Jun-13 07:00N 40°39' W 074°04'0 0.0
2018-Jun-13 06:30N 40°39' W 074°04'0 0.0
2018-Jun-13 06:00N 40°39' W 074°04'0 0.0
2018-Jun-13 05:30N 40°39' W 074°04'0 0.0
2018-Jun-13 05:00N 40°39' W 074°04'0 0.0
2018-Jun-13 04:30N 40°39' W 074°04'0 0.0
2018-Jun-13 04:00N 40°39' W 074°04'0 0.0
2018-Jun-13 03:30N 40°39' W 074°04'0 0.0
2018-Jun-13 03:00N 40°39' W 074°04'0 0.0
2018-Jun-13 02:30N 40°38' W 074°04'0 0.0
2018-Jun-13 02:00N 40°39' W 074°04'0 0.0
2018-Jun-13 01:30N 40°39' W 074°04'0 0.0
2018-Jun-13 01:00N 40°39' W 074°04'0 0.0
2018-Jun-13 00:30N 40°39' W 074°04'0 0.0
2018-Jun-13 00:00N 40°39' W 074°04'0 0.0
2018-Jun-12 23:30N 40°39' W 074°04'0 0.0
2018-Jun-12 23:00N 40°39' W 074°04'0 0.0
2018-Jun-12 22:30N 40°39' W 074°04'0 0.0
2018-Jun-12 22:00N 40°39' W 074°04'0 0.0
2018-Jun-12 21:30N 40°39' W 074°04'0 0.0
2018-Jun-12 21:00N 40°39' W 074°04'0 0.0
2018-Jun-12 20:30N 40°39' W 074°04'0 0.0
2018-Jun-12 20:00N 40°39' W 074°04'0 0.0
2018-Jun-12 19:30N 40°39' W 074°04'0 0.0
2018-Jun-12 19:00N 40°39' W 074°04'0 0.0
2018-Jun-12 18:30N 40°39' W 074°04'0 0.0
2018-Jun-12 18:00N 40°39' W 074°04'0 0.0
2018-Jun-12 17:30N 40°39' W 074°04'0 0.0
2018-Jun-12 17:00N 40°39' W 074°04'0 0.0
2018-Jun-12 16:30N 40°39' W 074°04'0 0.0
2018-Jun-12 16:00N 40°39' W 074°04'0 0.0
2018-Jun-12 15:30N 40°39' W 074°04'0 0.0
2018-Jun-12 14:57N 40°39' W 074°04'0 0.0
2018-Jun-12 14:30N 40°39' W 074°04'0 0.0
2018-Jun-12 14:00N 40°39' W 074°04'0 0.0
2018-Jun-12 13:30N 40°39' W 074°04'0 0.0
2018-Jun-12 13:00N 40°39' W 074°04'0 0.0
2018-Jun-12 12:30N 40°39' W 074°04'0 0.0
2018-Jun-12 12:00N 40°39' W 074°04'0 0.0
2018-Jun-12 11:30N 40°39' W 074°04'0 0.0
2018-Jun-12 10:59N 40°39' W 074°04'0 0.0
2018-Jun-12 10:26N 40°39' W 074°04'0 0.0
2018-Jun-12 09:56N 40°39' W 074°04'0 0.0
2018-Jun-12 09:29N 40°39' W 074°04'0 0.0
2018-Jun-12 06:41N 40°39' W 074°04'0 0.0
2018-Jun-12 06:29N 40°39' W 074°04'0 0.0
2018-Jun-12 05:50N 40°39' W 074°04'0 0.0
2018-Jun-12 05:29N 40°39' W 074°04'0 0.0
2018-Jun-12 04:44N 40°39' W 074°04'0 0.0
2018-Jun-12 04:20N 40°39' W 074°04'0 0.0
2018-Jun-12 02:50N 40°39' W 074°04'0 0.0
2018-Jun-12 02:17N 40°39' W 074°04'0 0.0
2018-Jun-12 01:56N 40°39' W 074°04'0 0.0
2018-Jun-12 01:11N 40°39' W 074°04'0 0.0
2018-Jun-12 00:41N 40°39' W 074°04'0 0.0
2018-Jun-12 00:14N 40°39' W 074°04'0 0.0
2018-Jun-11 23:56N 40°39' W 074°04'0 0.0
2018-Jun-11 23:29N 40°39' W 074°04'0 0.0
2018-Jun-11 22:56N 40°39' W 074°04'0 0.0
2018-Jun-11 22:20N 40°38' W 074°04'0 0.0
2018-Jun-11 21:35N 40°39' W 074°04'0 0.1
2018-Jun-11 21:29N 40°39' W 074°04'0 0.0
2018-Jun-11 20:41N 40°39' W 074°04'0 0.0
2018-Jun-11 20:08N 40°39' W 074°04'0 0.0
2018-Jun-11 14:53N 40°39' W 074°04'0 0.0
2018-Jun-11 11:20N 40°39' W 074°04'0 0.0
2018-Jun-11 10:53N 40°39' W 074°04'0 0.0
2018-Jun-11 10:29N 40°39' W 074°04'0 0.0
2018-Jun-11 09:59N 40°39' W 074°04'0 0.0
2018-Jun-11 09:20N 40°39' W 074°04'0 0.0
2018-Jun-11 08:50N 40°39' W 074°04'0 0.0
2018-Jun-11 08:29N 40°39' W 074°04'0 0.0
2018-Jun-11 07:47N 40°39' W 074°04'0 0.0
2018-Jun-11 07:29N 40°39' W 074°04'0 0.0
2018-Jun-11 06:59N 40°39' W 074°04'0 0.0
2018-Jun-11 06:29N 40°39' W 074°04'0 0.0
2018-Jun-11 05:59N 40°39' W 074°04'0 0.0
2018-Jun-11 05:29N 40°39' W 074°04'0 0.0
2018-Jun-11 04:59N 40°39' W 074°04'0 0.0
2018-Jun-11 04:29N 40°39' W 074°04'0 0.0
2018-Jun-11 03:59N 40°39' W 074°04'0 0.0
2018-Jun-11 03:29N 40°39' W 074°04'0 0.0
2018-Jun-11 02:59N 40°39' W 074°04'0 0.0
2018-Jun-11 02:29N 40°39' W 074°04'0 0.0
2018-Jun-11 01:59N 40°39' W 074°04'0 0.0
2018-Jun-11 01:29N 40°39' W 074°04'0 0.0
2018-Jun-11 00:59N 40°39' W 074°04'0 0.0
2018-Jun-11 00:29N 40°39' W 074°04'0 0.0
2018-Jun-10 23:59N 40°39' W 074°04'0 0.0
2018-Jun-10 23:29N 40°39' W 074°04'0 0.0
2018-Jun-10 22:59N 40°39' W 074°04'0 0.0
2018-Jun-10 22:29N 40°39' W 074°04'0 0.0
2018-Jun-10 21:59N 40°39' W 074°04'0 0.0
2018-Jun-10 21:29N 40°39' W 074°04'0 0.0
2018-Jun-10 20:59N 40°39' W 074°04'0 0.0
2018-Jun-10 20:29N 40°39' W 074°04'0 0.0
2018-Jun-10 19:59N 40°39' W 074°04'0 0.0
2018-Jun-10 19:29N 40°39' W 074°04'0 0.0
2018-Jun-10 18:59N 40°39' W 074°04'0 0.0
2018-Jun-10 18:29N 40°39' W 074°04'0 0.0
2018-Jun-10 17:59N 40°39' W 074°04'0 0.0
2018-Jun-10 17:29N 40°39' W 074°04'0 0.0
2018-Jun-10 16:59N 40°39' W 074°04'0 0.0
2018-Jun-10 16:29N 40°39' W 074°04'0 0.0
2018-Jun-10 15:59N 40°39' W 074°04'0 0.0
2018-Jun-10 15:29N 40°39' W 074°04'0 0.0
2018-Jun-10 14:59N 40°39' W 074°04'0 0.0
2018-Jun-10 13:59N 40°39' W 074°04'0 0.0
2018-Jun-10 13:29N 40°39' W 074°04'0 0.0
2018-Jun-10 12:59N 40°39' W 074°04'0 0.0
2018-Jun-10 12:29N 40°39' W 074°04'0 0.0
2018-Jun-10 11:59N 40°39' W 074°04'0 0.0
2018-Jun-10 11:29N 40°39' W 074°04'0 0.0
2018-Jun-10 10:59N 40°39' W 074°04'0 0.0
2018-Jun-10 10:29N 40°39' W 074°04'0 0.0
2018-Jun-10 09:59N 40°39' W 074°04'0 0.0
2018-Jun-10 09:29N 40°39' W 074°04'0 0.0
2018-Jun-10 08:59N 40°39' W 074°04'0 0.0
2018-Jun-10 08:29N 40°39' W 074°04'0 0.0
2018-Jun-10 07:59N 40°39' W 074°04'0 0.0
2018-Jun-10 07:29N 40°39' W 074°04'0 0.0
2018-Jun-10 06:59N 40°39' W 074°04'0 0.0
2018-Jun-10 06:29N 40°39' W 074°04'0 0.0
2018-Jun-10 05:59N 40°39' W 074°04'0 0.0
2018-Jun-10 05:29N 40°39' W 074°04'0 0.0
2018-Jun-10 04:59N 40°39' W 074°04'0 0.0
2018-Jun-10 04:29N 40°39' W 074°04'0 0.0
2018-Jun-10 03:59N 40°39' W 074°04'0 0.0
2018-Jun-10 03:29N 40°39' W 074°04'0 0.0
2018-Jun-10 02:59N 40°39' W 074°04'0 0.0
2018-Jun-10 02:29N 40°39' W 074°04'0 0.0
2018-Jun-10 01:59N 40°39' W 074°04'0 0.0
2018-Jun-10 01:29N 40°39' W 074°04'0 0.0
2018-Jun-10 00:59N 40°39' W 074°04'0 0.0
2018-Jun-10 00:29N 40°39' W 074°04'0 0.0
2018-Jun-09 23:59N 40°39' W 074°04'0 0.0
2018-Jun-09 23:29N 40°39' W 074°04'0 0.0
2018-Jun-09 22:59N 40°39' W 074°04'0 0.0
2018-Jun-09 22:29N 40°38' W 074°04'0 0.0
2018-Jun-09 21:59N 40°39' W 074°04'0 0.0
2018-Jun-09 21:29N 40°39' W 074°04'0 0.0
2018-Jun-09 20:59N 40°39' W 074°04'0 0.0
2018-Jun-09 20:29N 40°39' W 074°04'0 0.0
2018-Jun-09 19:59N 40°39' W 074°04'0 0.0
2018-Jun-09 19:29N 40°39' W 074°04'0 0.0
2018-Jun-09 18:59N 40°39' W 074°04'0 0.0
2018-Jun-09 18:29N 40°39' W 074°04'0 0.0
2018-Jun-09 17:59N 40°39' W 074°04'0 0.0
2018-Jun-09 17:29N 40°39' W 074°04'0 0.0
2018-Jun-09 16:59N 40°39' W 074°04'0 0.0
2018-Jun-09 16:29N 40°39' W 074°04'0 0.0
2018-Jun-09 15:59N 40°39' W 074°04'0 0.0
2018-Jun-09 14:59N 40°39' W 074°04'0 0.0
2018-Jun-09 14:29N 40°39' W 074°04'0 0.0
2018-Jun-09 13:59N 40°39' W 074°04'0 0.0
2018-Jun-09 13:29N 40°39' W 074°04'0 0.0
2018-Jun-09 12:59N 40°39' W 074°04'0 0.0
2018-Jun-09 12:29N 40°39' W 074°04'0 0.0
2018-Jun-09 11:59N 40°39' W 074°04'0 0.0
2018-Jun-09 11:29N 40°39' W 074°04'0 0.0
2018-Jun-09 10:59N 40°39' W 074°04'0 0.0
2018-Jun-09 10:29N 40°39' W 074°04'0 0.0
2018-Jun-09 09:59N 40°39' W 074°04'0 0.0
2018-Jun-09 09:29N 40°39' W 074°04'0 0.0
2018-Jun-09 08:59N 40°39' W 074°04'0 0.0
2018-Jun-09 08:29N 40°39' W 074°04'0 0.0
2018-Jun-09 07:59N 40°39' W 074°04'0 0.0
2018-Jun-09 07:29N 40°39' W 074°04'0 0.0
2018-Jun-09 06:59N 40°38' W 074°04'  

Dump ship's entire track history